createdAt,value
2019-02-23T08:26:04.500Z,15.57
2019-02-23T08:28:32.815Z,15.77
2019-02-23T08:31:01.166Z,15.60
2019-02-23T08:33:29.580Z,16.00
2019-02-23T08:35:58.005Z,15.60
2019-02-23T08:38:27.261Z,15.87
2019-02-23T08:40:56.255Z,14.57
2019-02-23T08:43:24.591Z,15.03
2019-02-23T08:45:52.961Z,16.10
2019-02-23T08:48:21.335Z,15.70
2019-02-23T08:50:49.962Z,14.80
2019-02-23T08:53:18.332Z,15.33
2019-02-23T08:55:47.164Z,16.27
2019-02-23T08:58:15.584Z,14.70
2019-02-23T09:00:43.921Z,14.80
2019-02-23T09:03:12.259Z,15.47
2019-02-23T09:05:40.647Z,16.03
2019-02-23T09:08:09.029Z,14.80
2019-02-23T09:10:37.379Z,13.87
2019-02-23T09:13:05.909Z,14.53
2019-02-23T09:15:34.254Z,14.73
2019-02-23T09:18:02.551Z,13.80
2019-02-23T09:20:30.903Z,15.33
2019-02-23T09:23:00.387Z,14.17
2019-02-23T09:25:29.008Z,13.90
2019-02-23T09:27:58.674Z,13.80
2019-02-23T09:30:27.016Z,13.83
2019-02-23T09:32:55.347Z,13.10
2019-02-23T09:35:23.655Z,12.43
2019-02-23T09:37:52.209Z,13.77
2019-02-23T09:40:21.152Z,12.20
2019-02-23T09:42:49.497Z,12.30
2019-02-23T09:45:17.935Z,12.90
2019-02-23T09:47:46.257Z,12.47
2019-02-23T09:50:14.645Z,11.40
2019-02-23T09:52:43.054Z,11.43
2019-02-23T09:55:11.597Z,11.37
2019-02-23T09:57:40.014Z,11.53
2019-02-23T10:00:11.636Z,11.10
2019-02-23T10:02:40.055Z,10.60
2019-02-23T10:05:09.292Z,11.13
2019-02-23T10:07:37.699Z,10.67
2019-02-23T10:10:09.561Z,9.90
2019-02-23T10:12:37.928Z,10.37
2019-02-23T10:15:08.628Z,10.23
2019-02-23T10:17:37.149Z,9.20
2019-02-23T10:20:08.667Z,9.37
2019-02-23T10:22:39.490Z,9.67
2019-02-23T10:25:07.791Z,10.30
2019-02-23T10:27:36.097Z,9.47
2019-02-23T10:30:07.232Z,9.60
2019-02-23T10:32:35.533Z,10.33
2019-02-23T10:35:04.813Z,10.10
2019-02-23T10:37:33.191Z,9.40
2019-02-23T10:40:01.607Z,9.40
2019-02-23T10:42:29.988Z,9.90
2019-02-23T10:44:58.394Z,9.20
2019-02-23T10:47:26.759Z,9.50
2019-02-23T10:49:55.177Z,8.77
2019-02-23T10:52:23.464Z,8.97
2019-02-23T10:54:51.865Z,9.50
2019-02-23T10:57:21.843Z,8.97
2019-02-23T10:59:50.218Z,9.87
2019-02-23T11:02:18.776Z,9.50
2019-02-23T11:04:47.125Z,8.33
2019-02-23T11:07:15.633Z,8.80
2019-02-23T11:09:43.959Z,8.00
2019-02-23T11:12:12.496Z,8.27
2019-02-23T11:14:41.052Z,8.33
2019-02-23T11:17:09.506Z,8.67
2019-02-23T11:19:37.805Z,8.83
2019-02-23T11:22:06.226Z,7.87
2019-02-23T11:24:34.606Z,7.90
2019-02-23T11:27:02.992Z,7.33
2019-02-23T11:29:31.285Z,7.40
2019-02-23T11:31:59.606Z,7.50
2019-02-23T11:34:27.979Z,7.17
2019-02-23T11:36:56.289Z,6.87
2019-02-23T11:39:24.595Z,6.67
2019-02-23T11:41:52.978Z,6.90
2019-02-23T11:44:21.281Z,5.97
2019-02-23T11:46:59.870Z,6.80
2019-02-23T11:49:20.017Z,6.20
2019-02-23T11:51:48.350Z,6.70
2019-02-23T11:54:16.706Z,6.40
2019-02-23T11:56:45.106Z,6.20
2019-02-23T11:59:13.409Z,5.87
2019-02-23T12:01:41.904Z,6.20
2019-02-23T12:04:10.369Z,5.77
2019-02-23T12:06:38.854Z,6.13
2019-02-23T12:09:08.398Z,5.70
2019-02-23T12:11:36.815Z,5.60
2019-02-23T12:14:05.136Z,5.97
2019-02-23T12:16:33.513Z,6.40
2019-02-23T12:19:02.212Z,5.43
2019-02-23T12:21:30.663Z,5.67
2019-02-23T12:24:05.971Z,5.70
2019-02-23T12:26:29.560Z,5.20
2019-02-23T12:28:58.062Z,5.83
2019-02-23T12:31:26.522Z,5.57
2019-02-23T12:33:54.826Z,5.30
2019-02-23T12:36:23.149Z,5.50
2019-02-23T12:38:51.536Z,5.60
2019-02-23T12:41:20.063Z,5.80
2019-02-23T12:43:48.650Z,5.67
2019-02-23T12:46:16.946Z,5.90
2019-02-23T12:48:45.289Z,5.33
2019-02-23T12:51:13.591Z,5.17
2019-02-23T12:53:41.972Z,5.20
2019-02-23T12:56:10.523Z,5.07
2019-02-23T12:58:38.923Z,5.50
2019-02-23T13:01:07.222Z,5.17
2019-02-23T13:03:35.501Z,5.27
2019-02-23T13:06:03.964Z,5.40
2019-02-23T13:08:35.585Z,5.33
2019-02-23T13:11:03.943Z,5.87
2019-02-23T13:13:38.406Z,5.37
2019-02-23T13:16:18.580Z,5.60
2019-02-23T13:19:09.738Z,5.57
2019-02-23T13:21:53.188Z,5.97
2019-02-23T13:24:33.536Z,4.90
2019-02-23T13:27:07.795Z,5.73
2019-02-23T13:29:48.411Z,6.10
2019-02-23T13:32:45.906Z,5.60
2019-02-23T13:35:35.919Z,5.70
2019-02-23T13:38:25.663Z,5.10
2019-02-23T13:41:06.210Z,5.73
2019-02-23T13:43:40.345Z,5.90
2019-02-23T13:46:33.292Z,5.20
2019-02-23T13:49:30.623Z,5.97
2019-02-23T13:52:07.935Z,5.27
2019-02-23T13:54:42.159Z,6.30
2019-02-23T13:57:25.897Z,5.20
2019-02-23T14:00:15.355Z,5.50
2019-02-23T14:03:03.514Z,5.57
2019-02-23T14:05:37.914Z,5.03
2019-02-23T14:08:27.374Z,5.07
2019-02-23T14:11:08.264Z,4.97
2019-02-23T14:13:42.416Z,5.40
2019-02-23T14:16:35.234Z,5.90
2019-02-23T14:19:24.796Z,5.57
2019-02-23T14:22:05.286Z,5.13
2019-02-23T14:24:51.787Z,5.00
2019-02-23T14:27:53.543Z,4.57
2019-02-23T14:30:40.526Z,4.60
2019-02-23T14:33:32.955Z,4.17
2019-02-23T14:36:04.422Z,4.63
2019-02-23T14:38:57.211Z,4.87
2019-02-23T14:41:45.367Z,4.10
2019-02-23T14:44:19.847Z,4.27
2019-02-23T14:46:57.019Z,3.97
2019-02-23T14:49:40.344Z,4.30
2019-02-23T14:52:37.709Z,4.30
2019-02-23T14:55:12.082Z,4.77
2019-02-23T14:57:49.393Z,4.47
2019-02-23T15:00:46.808Z,4.20
2019-02-23T15:03:52.128Z,3.60
2019-02-23T15:06:46.049Z,3.90
2019-02-23T15:09:20.556Z,4.10
2019-02-23T15:11:58.067Z,3.63
2019-02-23T15:14:32.736Z,3.77
2019-02-23T15:17:10.324Z,3.13
2019-02-23T15:20:14.791Z,3.13
2019-02-23T15:22:55.141Z,3.33
2019-02-23T15:25:38.966Z,3.33
2019-02-23T15:28:37.780Z,3.03
2019-02-23T15:31:04.570Z,4.10
2019-02-23T15:33:45.087Z,3.63
2019-02-23T15:36:25.427Z,3.07
2019-02-23T15:39:15.393Z,3.37
2019-02-23T15:41:50.095Z,3.57
2019-02-23T15:44:36.782Z,3.87
2019-02-23T15:47:14.077Z,3.57
2019-02-23T15:49:42.924Z,3.83
2019-02-23T15:52:11.474Z,3.30
2019-02-23T15:54:39.847Z,3.30
2019-02-23T15:57:08.194Z,6.10
2019-02-23T15:59:36.811Z,3.50
2019-02-23T16:02:05.218Z,3.53
2019-02-23T16:04:33.668Z,4.50
2019-02-23T16:07:02.026Z,4.30
2019-02-23T16:09:30.353Z,4.93
2019-02-23T16:11:58.761Z,3.83
2019-02-23T16:14:27.422Z,4.03
2019-02-23T16:16:55.766Z,3.70
2019-02-23T16:19:24.109Z,3.30
2019-02-23T16:21:53.085Z,3.30
2019-02-23T16:24:23.030Z,3.13
2019-02-23T16:26:51.444Z,3.40
2019-02-23T16:29:19.892Z,3.33
2019-02-23T16:31:48.574Z,2.60
2019-02-23T16:34:16.873Z,3.13
2019-02-23T16:36:45.211Z,2.90
2019-02-23T16:39:14.155Z,2.90
2019-02-23T16:41:42.476Z,3.10
2019-02-23T16:44:10.776Z,2.73
2019-02-23T16:46:39.115Z,3.17
2019-02-23T16:49:07.533Z,3.10
2019-02-23T16:51:36.083Z,3.00
2019-02-23T16:54:04.427Z,3.10
2019-02-23T16:56:33.958Z,3.20
2019-02-23T16:59:02.521Z,3.30
2019-02-23T17:01:31.990Z,3.30
2019-02-23T17:04:00.641Z,3.40
2019-02-23T17:06:29.011Z,4.03
2019-02-23T17:08:57.347Z,5.00
2019-02-23T17:11:25.652Z,3.60
2019-02-23T17:13:54.276Z,4.00
2019-02-23T17:16:22.699Z,3.90
2019-02-23T17:18:51.147Z,3.53
2019-02-23T17:21:19.586Z,4.20
2019-02-23T17:23:47.917Z,4.20
2019-02-23T17:26:16.230Z,3.70
2019-02-23T17:28:44.577Z,4.63
2019-02-23T17:31:13.014Z,4.33
2019-02-23T17:33:41.477Z,4.47
2019-02-23T17:36:10.238Z,4.53
2019-02-23T17:38:38.871Z,4.60
2019-02-23T17:41:07.599Z,4.63
2019-02-23T17:43:36.158Z,5.00
2019-02-23T17:46:04.741Z,5.23
2019-02-23T17:51:01.473Z,4.43
2019-02-23T17:53:29.995Z,4.10
2019-02-23T17:55:58.567Z,4.10
2019-02-23T17:58:26.978Z,4.20
2019-02-23T18:00:55.388Z,4.30
2019-02-23T18:03:25.304Z,4.70
2019-02-23T18:05:53.900Z,3.57
2019-02-23T18:08:22.281Z,4.00
2019-02-23T18:10:50.590Z,3.80
2019-02-23T18:13:18.982Z,3.87
2019-02-23T18:15:47.307Z,4.33
2019-02-23T18:18:15.691Z,4.23
2019-02-23T18:20:44.607Z,4.43
2019-02-23T18:23:13.075Z,4.73
2019-02-23T18:25:41.629Z,4.10
2019-02-23T18:28:10.011Z,4.90
2019-02-23T18:30:38.720Z,4.57
2019-02-23T18:33:07.114Z,5.13
2019-02-23T18:35:35.799Z,5.47
2019-02-23T18:38:04.336Z,5.20
2019-02-23T18:40:32.770Z,4.53
2019-02-23T18:43:01.359Z,5.50
2019-02-23T18:45:29.790Z,4.20
2019-02-23T18:47:58.674Z,4.70
2019-02-23T18:50:26.982Z,4.53
2019-02-23T18:52:55.651Z,4.43
2019-02-23T18:55:24.063Z,4.30
2019-02-23T18:57:53.580Z,4.43
2019-02-23T19:00:24.380Z,3.97
2019-02-23T19:02:52.207Z,3.77
2019-02-23T19:05:20.758Z,4.13
2019-02-23T19:07:49.340Z,4.13
2019-02-23T19:10:18.999Z,4.00
2019-02-23T19:12:47.606Z,4.37
2019-02-23T19:15:16.053Z,4.20
2019-02-23T19:17:46.313Z,3.77
2019-02-23T19:20:15.372Z,6.07
2019-02-23T19:22:43.893Z,5.80
2019-02-23T19:25:12.395Z,4.57
2019-02-23T19:27:42.478Z,3.90
2019-02-23T19:30:12.723Z,5.00
2019-02-23T19:32:42.326Z,4.43
2019-02-23T19:35:10.702Z,4.23
2019-02-23T19:37:39.013Z,4.33
2019-02-23T19:40:09.297Z,4.40
2019-02-23T19:42:37.813Z,4.40
2019-02-23T19:45:11.746Z,4.00
2019-02-23T19:47:42.067Z,4.13
2019-02-23T19:50:16.560Z,3.97
2019-02-23T19:52:44.919Z,4.40
2019-02-23T19:55:15.894Z,4.70
2019-02-23T19:57:44.306Z,4.77
2019-02-23T20:00:13.370Z,4.37
2019-02-23T20:02:41.930Z,4.03
2019-02-23T20:05:11.266Z,4.10
2019-02-23T20:07:39.739Z,3.93
2019-02-23T20:10:10.088Z,4.77
2019-02-23T20:12:38.521Z,4.73
2019-02-23T20:15:09.285Z,4.20
2019-02-23T20:17:37.609Z,4.07
2019-02-23T20:20:07.276Z,4.47
2019-02-23T20:22:35.685Z,4.43
2019-02-23T20:25:05.171Z,4.03
2019-02-23T20:27:33.667Z,4.23
2019-02-23T20:30:02.312Z,4.30
2019-02-23T20:32:31.325Z,4.53
2019-02-23T20:34:59.900Z,4.30
2019-02-23T20:37:28.458Z,4.50
2019-02-23T20:39:56.965Z,4.50
2019-02-23T20:42:25.590Z,4.60
2019-02-23T20:44:55.588Z,4.33
2019-02-23T20:47:24.006Z,4.30
2019-02-23T20:49:54.230Z,4.40
2019-02-23T20:52:22.626Z,5.10
2019-02-23T20:54:50.932Z,4.40
2019-02-23T20:57:19.496Z,4.60
2019-02-23T20:59:48.168Z,4.73
2019-02-23T21:02:17.027Z,5.00
2019-02-23T21:04:45.583Z,4.30
2019-02-23T21:07:13.937Z,5.07
2019-02-23T21:09:42.248Z,4.90
2019-02-23T21:12:10.791Z,5.50
2019-02-23T21:14:39.115Z,4.47
2019-02-23T21:17:07.547Z,5.70
2019-02-23T21:19:36.048Z,5.20
2019-02-23T21:22:04.563Z,5.87
2019-02-23T21:24:32.888Z,5.40
2019-02-23T21:27:01.321Z,4.60
2019-02-23T21:29:29.673Z,5.20
2019-02-23T21:31:59.611Z,5.27
2019-02-23T21:34:27.995Z,7.80
2019-02-23T21:36:58.118Z,5.57
2019-02-23T21:39:26.474Z,4.97
2019-02-23T21:41:54.817Z,4.50
2019-02-23T21:44:23.275Z,4.50
2019-02-23T21:46:51.576Z,3.90
2019-02-23T21:49:19.856Z,4.00
2019-02-23T21:51:48.244Z,4.13
2019-02-23T21:54:16.807Z,4.17
2019-02-23T21:56:45.256Z,3.67
2019-02-23T21:59:13.618Z,3.83
2019-02-23T22:01:42.415Z,4.20
2019-02-23T22:04:10.805Z,4.40
2019-02-23T22:06:39.084Z,3.80
2019-02-23T22:09:07.861Z,4.00
2019-02-23T22:11:36.180Z,4.70
2019-02-23T22:14:04.497Z,3.70
2019-02-23T22:16:32.859Z,3.50
2019-02-23T22:19:01.258Z,3.70
2019-02-23T22:21:29.725Z,3.80
2019-02-23T22:23:58.080Z,4.10
2019-02-23T22:26:26.341Z,3.60
2019-02-23T22:28:54.729Z,3.97
2019-02-23T22:31:23.033Z,4.17
2019-02-23T22:33:51.336Z,3.40
2019-02-23T22:36:19.628Z,3.17
2019-02-23T22:38:48.101Z,3.40
2019-02-23T22:41:16.579Z,3.20
2019-02-23T22:43:45.000Z,3.10
2019-02-23T22:46:13.536Z,3.40
2019-02-23T22:48:42.028Z,3.43
2019-02-23T22:51:10.390Z,3.30
2019-02-23T22:53:38.710Z,3.40
2019-02-23T22:56:07.000Z,3.63
2019-02-23T22:58:35.384Z,3.53
2019-02-23T23:01:04.316Z,3.60
2019-02-23T23:03:32.708Z,4.17
2019-02-23T23:06:01.006Z,4.70
2019-02-23T23:08:29.343Z,3.50
2019-02-23T23:10:57.640Z,3.30
2019-02-23T23:13:26.035Z,3.30
2019-02-23T23:15:54.481Z,3.37
2019-02-23T23:18:22.958Z,2.97
2019-02-23T23:20:51.292Z,3.50
2019-02-23T23:23:19.607Z,3.30
2019-02-23T23:25:48.019Z,3.30
2019-02-23T23:28:16.391Z,4.27
2019-02-23T23:30:45.736Z,3.00
2019-02-23T23:33:14.087Z,2.77
2019-02-23T23:35:42.413Z,3.37
2019-02-23T23:38:10.700Z,3.40
2019-02-23T23:40:39.030Z,3.60
2019-02-23T23:43:07.333Z,3.20
2019-02-23T23:45:35.648Z,3.10
2019-02-23T23:48:04.202Z,3.47
2019-02-23T23:50:32.731Z,2.83
2019-02-23T23:53:01.199Z,3.17
2019-02-23T23:55:29.602Z,3.10
2019-02-23T23:57:58.702Z,2.87
